Terminal Aerodrome Forecast
Issued by NWS Sioux Falls, SD

Home | Current Version | Previous Version | Text Only | Print | Product List | Glossary Off
Versions: 1 2 3 4 5 6 7 8 9 10 11 12 13 14 15 16 17 18

000
FTUS43 KFSD 231015 AAB
TAFHON
TAF AMD
KHON 231015Z 2310/2406 29005KT P6SM OVC008
     FM231500 31007KT P6SM OVC015
     FM231900 31006KT P6SM BKN020=

USA.gov is the U.S. government's official web portal to all federal, state and local government web resources and services.